createdAt,value
2022-08-23T00:10:06.043Z,9.10
2022-08-23T00:20:14.930Z,7.80
2022-08-23T00:30:21.461Z,8.50
2022-08-23T00:40:27.811Z,9.70
2022-08-23T00:50:39.581Z,7.40
2022-08-23T01:00:46.855Z,9.00
2022-08-23T01:10:58.881Z,10.00
2022-08-23T01:21:14.691Z,8.10
2022-08-23T01:31:23.305Z,9.60
2022-08-23T01:41:29.664Z,8.00
2022-08-23T01:51:36.039Z,7.80
2022-08-23T02:01:42.637Z,9.30
2022-08-23T02:11:49.025Z,9.70
2022-08-23T02:21:55.483Z,8.00
2022-08-23T02:32:02.232Z,7.80
2022-08-23T02:42:11.669Z,8.30
2022-08-23T02:52:18.815Z,7.40
2022-08-23T03:02:25.222Z,9.40
2022-08-23T03:12:32.155Z,10.00
2022-08-23T03:22:38.972Z,9.00
2022-08-23T03:32:49.019Z,7.30
2022-08-23T03:42:55.693Z,8.90
2022-08-23T03:53:02.008Z,8.40
2022-08-23T04:03:08.346Z,9.10
2022-08-23T04:13:14.699Z,9.10
2022-08-23T04:23:20.013Z,9.80
2022-08-23T04:33:26.502Z,9.20
2022-08-23T04:43:32.835Z,8.90
2022-08-23T04:53:40.755Z,9.70
2022-08-23T05:03:47.181Z,9.00
2022-08-23T05:13:53.511Z,9.30
2022-08-23T05:23:59.848Z,8.70
2022-08-23T05:34:08.535Z,30.10
2022-08-23T05:44:15.532Z,35.80
2022-08-23T05:54:23.377Z,29.90
2022-08-23T06:04:29.664Z,32.70
2022-08-23T06:14:36.001Z,36.60
2022-08-23T06:24:42.380Z,32.70
2022-08-23T06:34:48.696Z,30.00
2022-08-23T06:44:55.054Z,9.10
2022-08-23T06:55:03.440Z,10.40
2022-08-23T07:05:09.850Z,9.70
2022-08-23T07:15:16.188Z,13.20
2022-08-23T07:25:22.493Z,10.30
2022-08-23T07:35:29.620Z,11.70
2022-08-23T07:45:37.208Z,14.40
2022-08-23T07:55:43.523Z,13.50
2022-08-23T08:05:49.905Z,14.40
2022-08-23T08:15:56.588Z,14.40
2022-08-23T08:26:08.105Z,15.30
2022-08-23T08:36:30.795Z,15.80
2022-08-23T08:46:49.029Z,15.00
2022-08-23T08:56:57.871Z,18.60
2022-08-23T09:07:25.915Z,18.10
2022-08-23T09:17:46.116Z,19.10
2022-08-23T09:27:52.521Z,22.00
2022-08-23T09:38:16.916Z,17.60
2022-08-23T09:48:43.882Z,22.30
2022-08-23T09:58:53.744Z,18.30
2022-08-23T10:09:05.641Z,19.50
2022-08-23T10:19:19.273Z,20.50
2022-08-23T10:29:49.800Z,20.10
2022-08-23T10:40:04.621Z,23.70
2022-08-23T10:50:15.070Z,22.30
2022-08-23T11:00:24.443Z,22.20
2022-08-23T11:10:33.713Z,23.50
2022-08-23T11:20:52.309Z,23.80
2022-08-23T11:31:01.508Z,22.70
2022-08-23T11:41:25.727Z,22.50
2022-08-23T11:52:10.585Z,41.90
2022-08-23T12:02:49.083Z,45.70
2022-08-23T12:13:23.655Z,43.90
2022-08-23T12:23:30.882Z,44.70
2022-08-23T12:34:08.850Z,46.50
2022-08-23T12:44:19.550Z,43.60
2022-08-23T12:54:35.376Z,47.70
2022-08-23T13:04:43.234Z,44.50
2022-08-23T13:14:55.075Z,43.50
2022-08-23T13:25:29.537Z,29.40
2022-08-23T13:35:39.193Z,26.55
2022-08-23T13:45:49.850Z,25.90
2022-08-23T13:55:59.722Z,25.20
2022-08-23T14:06:06.123Z,29.50
2022-08-23T14:16:39.203Z,28.40
2022-08-23T14:26:50.311Z,23.90
2022-08-23T14:47:26.026Z,25.60
2022-08-23T14:57:32.391Z,24.30
2022-08-23T15:07:38.778Z,25.90
2022-08-23T15:17:49.581Z,27.80
2022-08-23T15:27:56.195Z,22.70
2022-08-23T15:38:02.531Z,22.10
2022-08-23T15:48:29.170Z,22.70
2022-08-23T15:58:36.999Z,21.80
2022-08-23T16:08:49.822Z,22.40
2022-08-23T16:18:56.260Z,21.80
2022-08-23T16:29:02.750Z,26.10
2022-08-23T16:39:09.888Z,25.40
2022-08-23T16:49:17.797Z,21.50
2022-08-23T16:59:24.198Z,20.50
2022-08-23T17:09:30.721Z,21.80
2022-08-23T17:19:37.626Z,20.80
2022-08-23T17:29:44.023Z,22.20
2022-08-23T17:39:51.778Z,21.90
2022-08-23T17:49:59.686Z,21.40
2022-08-23T18:00:08.658Z,20.60
2022-08-23T18:10:15.085Z,21.80
2022-08-23T18:20:22.320Z,20.90
2022-08-23T18:31:07.449Z,21.80
2022-08-23T18:41:15.208Z,20.50
2022-08-23T18:51:24.792Z,20.00
2022-08-23T19:01:34.797Z,22.80
2022-08-23T19:11:42.320Z,22.10
2022-08-23T19:21:50.484Z,21.40
2022-08-23T19:31:56.958Z,23.50
2022-08-23T19:42:06.469Z,22.50
2022-08-23T19:52:14.860Z,23.20
2022-08-23T20:02:21.203Z,21.90
2022-08-23T20:12:30.046Z,20.80
2022-08-23T20:22:55.221Z,21.90
2022-08-23T20:33:01.671Z,20.80
2022-08-23T20:43:08.216Z,21.00
2022-08-23T20:53:15.783Z,21.30
2022-08-23T21:03:22.212Z,21.30
2022-08-23T21:13:28.571Z,20.80
2022-08-23T21:23:35.599Z,19.50
2022-08-23T21:33:43.291Z,19.60
2022-08-23T21:43:49.668Z,25.40
2022-08-23T21:53:56.114Z,20.10
2022-08-23T22:04:03.846Z,20.90
2022-08-23T22:14:21.380Z,20.50
2022-08-23T22:24:27.702Z,20.90
2022-08-23T22:34:34.019Z,22.00
2022-08-23T22:44:40.393Z,21.20
2022-08-23T22:54:47.127Z,20.10
2022-08-23T23:04:53.497Z,21.10
2022-08-23T23:14:59.941Z,21.50
2022-08-23T23:25:06.710Z,21.30
2022-08-23T23:35:13.088Z,22.30
2022-08-23T23:45:22.192Z,21.90
2022-08-23T23:55:28.560Z,23.20
